createdAt,value
2022-10-11T00:01:35.287Z,13.01
2022-10-11T00:04:01.870Z,12.97
2022-10-11T00:06:28.346Z,12.92
2022-10-11T00:08:54.856Z,12.90
2022-10-11T00:11:21.394Z,12.87
2022-10-11T00:13:47.879Z,12.81
2022-10-11T00:16:15.527Z,12.78
2022-10-11T00:18:42.540Z,12.77
2022-10-11T00:21:12.126Z,12.73
2022-10-11T00:23:38.818Z,12.72
2022-10-11T00:26:07.622Z,12.68
2022-10-11T00:28:35.121Z,12.65
2022-10-11T00:31:02.021Z,12.61
2022-10-11T00:33:28.795Z,12.61
2022-10-11T00:35:55.765Z,12.61
2022-10-11T00:38:22.313Z,12.57
2022-10-11T00:40:48.762Z,12.55
2022-10-11T00:43:21.175Z,12.52
2022-10-11T00:45:56.740Z,12.51
2022-10-11T00:48:27.563Z,12.47
2022-10-11T00:50:55.844Z,12.44
2022-10-11T00:53:22.858Z,12.41
2022-10-11T00:55:53.520Z,12.39
2022-10-11T00:58:20.890Z,12.37
2022-10-11T01:00:48.076Z,12.35
2022-10-11T01:03:16.321Z,12.30
2022-10-11T01:05:42.873Z,12.29
2022-10-11T01:08:09.433Z,12.26
2022-10-11T01:10:35.917Z,12.23
2022-10-11T01:13:36.224Z,12.22
2022-10-11T01:16:24.489Z,12.20
2022-10-11T01:19:02.511Z,12.18
2022-10-11T01:21:39.779Z,12.16
2022-10-11T01:24:12.240Z,12.14
2022-10-11T01:26:55.653Z,12.14
2022-10-11T01:29:46.884Z,12.11
2022-10-11T01:32:29.786Z,12.08
2022-10-11T01:35:06.378Z,12.05
2022-10-11T01:37:41.530Z,12.03
2022-10-11T01:40:12.909Z,12.01
2022-10-11T01:42:40.386Z,11.99
2022-10-11T01:45:14.382Z,11.96
2022-10-11T01:47:42.544Z,11.93
2022-10-11T01:50:34.523Z,11.90
2022-10-11T01:53:11.833Z,11.88
2022-10-11T01:55:45.884Z,11.83
2022-10-11T01:58:56.262Z,11.79
2022-10-11T02:01:56.831Z,11.76
2022-10-11T02:04:49.463Z,11.73
2022-10-11T02:07:26.425Z,11.70
2022-10-11T02:10:01.335Z,11.66
2022-10-11T02:12:36.100Z,11.62
2022-10-11T02:15:03.951Z,11.60
2022-10-11T02:17:39.072Z,11.58
2022-10-11T02:20:10.555Z,11.55
2022-10-11T02:22:39.198Z,11.52
2022-10-11T02:25:09.486Z,11.49
2022-10-11T02:27:38.549Z,11.46
2022-10-11T02:30:07.609Z,11.44
2022-10-11T02:32:35.488Z,11.41
2022-10-11T02:35:02.592Z,11.38
2022-10-11T02:37:51.774Z,11.33
2022-10-11T02:40:25.161Z,11.30
2022-10-11T02:42:59.245Z,11.28
2022-10-11T02:45:30.677Z,11.23
2022-10-11T02:47:57.782Z,11.23
2022-10-11T02:50:24.265Z,11.20
2022-10-11T02:52:50.766Z,11.18
2022-10-11T02:55:17.413Z,11.15
2022-10-11T02:57:43.891Z,11.13
2022-10-11T03:00:11.197Z,11.10
2022-10-11T03:02:37.664Z,11.08
2022-10-11T03:05:04.361Z,11.05
2022-10-11T03:07:30.994Z,11.03
2022-10-11T03:09:57.508Z,11.00
2022-10-11T03:12:24.009Z,10.97
2022-10-11T03:14:50.486Z,10.94
2022-10-11T03:17:35.755Z,10.91
2022-10-11T03:20:04.236Z,10.86
2022-10-11T03:22:30.723Z,10.82
2022-10-11T03:25:02.504Z,10.79
2022-10-11T03:27:30.546Z,10.77
2022-10-11T03:29:57.875Z,10.76
2022-10-11T03:32:24.492Z,10.74
2022-10-11T03:34:50.971Z,10.71
2022-10-11T03:37:17.477Z,10.68
2022-10-11T03:39:45.576Z,10.67
2022-10-11T03:42:12.716Z,10.65
2022-10-11T03:44:39.200Z,10.62
2022-10-11T03:47:06.194Z,10.61
2022-10-11T03:49:32.799Z,10.58
2022-10-11T03:51:59.297Z,10.55
2022-10-11T03:54:26.190Z,10.53
2022-10-11T03:56:52.921Z,10.50
2022-10-11T03:59:19.547Z,10.47
2022-10-11T04:01:46.117Z,10.47
2022-10-11T04:04:12.676Z,10.44
2022-10-11T04:06:39.134Z,10.45
2022-10-11T04:09:05.594Z,10.44
2022-10-11T04:11:32.752Z,10.43
2022-10-11T04:13:59.282Z,10.43
2022-10-11T04:16:25.763Z,10.41
2022-10-11T04:18:52.335Z,10.38
2022-10-11T04:21:18.819Z,10.41
2022-10-11T04:23:45.508Z,10.39
2022-10-11T04:26:12.064Z,10.37
2022-10-11T04:28:38.739Z,10.36
2022-10-11T04:31:06.630Z,10.34
2022-10-11T04:33:33.171Z,10.32
2022-10-11T04:35:59.822Z,10.29
2022-10-11T04:38:26.310Z,10.26
2022-10-11T04:40:52.832Z,10.24
2022-10-11T04:43:19.417Z,10.23
2022-10-11T04:45:46.009Z,10.21
2022-10-11T04:48:12.637Z,10.20
2022-10-11T04:50:39.107Z,10.18
2022-10-11T04:53:05.683Z,10.18
2022-10-11T04:55:32.181Z,10.16
2022-10-11T04:57:58.742Z,10.16
2022-10-11T05:00:25.238Z,10.14
2022-10-11T05:02:52.990Z,10.14
2022-10-11T05:05:19.472Z,10.14
2022-10-11T05:07:46.094Z,10.12
2022-10-11T05:10:12.683Z,10.09
2022-10-11T05:12:39.166Z,10.08
2022-10-11T05:15:06.586Z,10.07
2022-10-11T05:17:33.101Z,10.05
2022-10-11T05:19:59.563Z,10.05
2022-10-11T05:22:26.090Z,10.04
2022-10-11T05:24:52.591Z,10.03
2022-10-11T05:27:19.086Z,10.01
2022-10-11T05:29:45.851Z,10.00
2022-10-11T05:32:12.316Z,9.99
2022-10-11T05:34:38.816Z,10.00
2022-10-11T05:37:05.382Z,10.00
2022-10-11T05:39:32.332Z,9.99
2022-10-11T05:41:58.940Z,10.00
2022-10-11T05:44:25.596Z,10.00
2022-10-11T05:46:52.164Z,10.00
2022-10-11T05:49:18.638Z,9.99
2022-10-11T05:51:45.210Z,9.99
2022-10-11T05:54:11.675Z,9.98
2022-10-11T05:56:38.170Z,9.97
2022-10-11T05:59:05.107Z,9.97
2022-10-11T06:01:31.738Z,9.97
2022-10-11T06:03:58.364Z,9.98
2022-10-11T06:06:24.864Z,9.99
2022-10-11T06:08:51.349Z,9.99
2022-10-11T06:11:21.215Z,10.00
2022-10-11T06:13:48.742Z,10.01
2022-10-11T06:16:16.068Z,10.02
2022-10-11T06:18:42.572Z,10.05
2022-10-11T06:21:09.058Z,10.08
2022-10-11T06:23:35.550Z,10.12
2022-10-11T06:26:08.298Z,10.14
2022-10-11T06:28:36.439Z,10.19
2022-10-11T06:31:05.299Z,10.23
2022-10-11T06:33:32.411Z,10.28
2022-10-11T06:36:00.530Z,10.31
2022-10-11T06:38:27.281Z,10.37
2022-10-11T06:40:54.040Z,10.43
2022-10-11T06:43:20.744Z,10.45
2022-10-11T06:45:47.292Z,10.52
2022-10-11T06:48:13.931Z,10.58
2022-10-11T06:50:59.168Z,10.63
2022-10-11T06:53:27.379Z,10.71
2022-10-11T06:55:53.922Z,10.78
2022-10-11T06:58:20.388Z,10.84
2022-10-11T07:00:46.922Z,10.91
2022-10-11T07:03:13.443Z,10.98
2022-10-11T07:05:39.969Z,11.06
2022-10-11T07:08:06.477Z,11.12
2022-10-11T07:10:33.039Z,11.19
2022-10-11T07:12:59.504Z,11.28
2022-10-11T07:15:25.960Z,11.34
2022-10-11T07:17:52.445Z,11.42
2022-10-11T07:20:19.201Z,11.49
2022-10-11T07:22:45.683Z,11.56
2022-10-11T07:25:12.153Z,11.61
2022-10-11T07:27:38.646Z,11.66
2022-10-11T07:30:05.742Z,11.75
2022-10-11T07:32:32.204Z,11.81
2022-10-11T07:34:58.712Z,11.88
2022-10-11T07:37:25.238Z,11.93
2022-10-11T07:39:51.832Z,11.97
2022-10-11T07:42:18.404Z,12.08
2022-10-11T07:44:44.983Z,12.12
2022-10-11T07:47:11.676Z,12.20
2022-10-11T07:49:38.222Z,12.27
2022-10-11T07:52:04.827Z,12.35
2022-10-11T07:54:31.725Z,12.40
2022-10-11T07:56:58.215Z,12.44
2022-10-11T07:59:24.695Z,12.50
2022-10-11T08:01:51.231Z,12.55
2022-10-11T08:04:17.922Z,12.60
2022-10-11T08:06:44.381Z,12.64
2022-10-11T08:09:12.190Z,12.69
2022-10-11T08:11:39.754Z,12.78
2022-10-11T08:14:08.654Z,12.78
2022-10-11T08:16:36.092Z,12.79
2022-10-11T08:19:03.320Z,12.82
2022-10-11T08:21:30.258Z,12.86
2022-10-11T08:23:56.745Z,12.92
2022-10-11T08:26:24.398Z,13.00
2022-10-11T08:28:50.906Z,13.03
2022-10-11T08:31:17.560Z,13.08
2022-10-11T08:33:44.205Z,13.14
2022-10-11T08:36:11.717Z,13.17
2022-10-11T08:38:39.300Z,13.23
2022-10-11T08:41:27.259Z,13.27
2022-10-11T08:44:09.141Z,13.31
2022-10-11T08:46:36.735Z,13.36
2022-10-11T08:49:04.193Z,13.39
2022-10-11T08:51:33.856Z,13.43
2022-10-11T08:54:07.884Z,13.47
2022-10-11T08:56:39.911Z,13.51
2022-10-11T08:59:12.384Z,13.56
2022-10-11T09:01:44.445Z,13.56
2022-10-11T09:04:14.601Z,13.63
2022-10-11T09:07:05.433Z,13.69
2022-10-11T09:10:09.275Z,13.74
2022-10-11T09:12:45.999Z,13.81
2022-10-11T09:15:28.890Z,13.85
2022-10-11T09:18:13.887Z,13.87
2022-10-11T09:20:52.905Z,13.92
2022-10-11T09:23:28.350Z,13.97
2022-10-11T09:25:58.858Z,14.03
2022-10-11T09:28:44.456Z,14.05
2022-10-11T09:31:11.629Z,14.06
2022-10-11T09:33:48.238Z,14.09
2022-10-11T09:36:52.460Z,14.10
2022-10-11T09:39:28.828Z,14.16
2022-10-11T09:42:02.635Z,14.17
2022-10-11T09:44:33.018Z,14.23
2022-10-11T09:46:59.604Z,14.29
2022-10-11T09:49:39.140Z,14.33
2022-10-11T09:52:11.169Z,14.35
2022-10-11T09:54:49.234Z,14.41
2022-10-11T09:57:25.939Z,14.50
2022-10-11T10:00:00.484Z,14.57
2022-10-11T10:02:29.390Z,14.64
2022-10-11T10:05:21.184Z,14.72
2022-10-11T10:08:22.753Z,14.79
2022-10-11T10:11:10.202Z,14.89
2022-10-11T10:13:47.057Z,14.97
2022-10-11T10:16:29.954Z,15.02
2022-10-11T10:19:29.046Z,15.13
2022-10-11T10:21:56.254Z,15.16
2022-10-11T10:24:40.000Z,15.22
2022-10-11T10:27:21.632Z,15.19
2022-10-11T10:30:08.900Z,15.18
2022-10-11T10:32:48.824Z,15.24
2022-10-11T10:35:27.580Z,15.28
2022-10-11T10:38:09.340Z,15.33
2022-10-11T10:40:43.547Z,15.33
2022-10-11T10:43:15.670Z,15.37
2022-10-11T10:46:21.682Z,15.27
2022-10-11T10:52:11.154Z,15.20
2022-10-11T10:54:48.812Z,15.24
2022-10-11T10:57:41.384Z,15.20
2022-10-11T11:00:15.124Z,15.21
2022-10-11T11:03:01.225Z,15.23
2022-10-11T11:05:48.468Z,15.23
2022-10-11T11:08:46.689Z,15.21
2022-10-11T11:11:32.352Z,15.23
2022-10-11T11:14:07.314Z,15.27
2022-10-11T11:16:51.540Z,15.30
2022-10-11T11:19:41.213Z,15.25
2022-10-11T11:22:21.750Z,15.26
2022-10-11T11:25:12.545Z,15.30
2022-10-11T11:27:55.830Z,15.35
2022-10-11T11:30:37.333Z,15.34
2022-10-11T11:33:20.400Z,15.36
2022-10-11T11:35:54.549Z,15.38
2022-10-11T11:38:44.464Z,15.36
2022-10-11T11:41:27.090Z,15.48
2022-10-11T11:44:16.850Z,15.54
2022-10-11T11:46:52.389Z,15.59
2022-10-11T11:49:30.575Z,15.67
2022-10-11T11:51:57.779Z,15.66
2022-10-11T11:54:42.600Z,15.66
2022-10-11T11:57:15.163Z,15.65
2022-10-11T11:59:50.614Z,15.64
2022-10-11T12:02:51.124Z,15.74
2022-10-11T12:05:21.167Z,15.79
2022-10-11T12:07:57.789Z,15.85
2022-10-11T12:10:26.337Z,15.91
2022-10-11T12:13:19.238Z,15.99
2022-10-11T12:16:01.897Z,16.08
2022-10-11T12:18:30.705Z,16.09
2022-10-11T12:21:15.471Z,16.14
2022-10-11T12:23:45.051Z,16.18
2022-10-11T12:26:29.816Z,16.18
2022-10-11T12:29:25.856Z,16.25
2022-10-11T12:32:00.895Z,16.27
2022-10-11T12:37:19.736Z,16.34
2022-10-11T12:39:49.121Z,16.36
2022-10-11T12:42:35.791Z,16.38
2022-10-11T12:45:12.129Z,16.37
2022-10-11T12:47:55.883Z,16.33
2022-10-11T12:50:54.741Z,16.34
2022-10-11T12:53:57.708Z,16.29
2022-10-11T12:57:11.668Z,16.28
2022-10-11T12:59:42.535Z,16.14
2022-10-11T13:02:28.789Z,16.20
2022-10-11T13:05:17.220Z,16.19
2022-10-11T13:07:43.806Z,16.18
2022-10-11T13:10:15.827Z,16.18
2022-10-11T13:12:43.652Z,16.24
2022-10-11T13:15:15.319Z,16.19
2022-10-11T13:17:41.970Z,16.19
2022-10-11T13:20:17.916Z,16.19
2022-10-11T13:22:47.561Z,16.19
2022-10-11T13:25:28.060Z,16.21
2022-10-11T13:27:57.510Z,16.20
2022-10-11T13:30:34.189Z,16.20
2022-10-11T13:33:01.675Z,16.22
2022-10-11T13:35:28.078Z,16.21
2022-10-11T13:37:54.619Z,16.22
2022-10-11T13:40:21.933Z,16.23
2022-10-11T13:42:50.313Z,16.23
2022-10-11T13:45:24.686Z,16.22
2022-10-11T13:47:52.423Z,16.25
2022-10-11T13:50:24.066Z,16.26
2022-10-11T13:53:16.799Z,16.21
2022-10-11T13:56:00.721Z,16.21
2022-10-11T13:58:35.177Z,16.15
2022-10-11T14:01:07.945Z,16.19
2022-10-11T14:03:39.635Z,16.14
2022-10-11T14:06:06.623Z,16.15
2022-10-11T14:08:45.839Z,16.13
2022-10-11T14:11:13.197Z,16.17
2022-10-11T14:13:47.454Z,16.17
2022-10-11T14:16:20.232Z,16.15
2022-10-11T14:18:50.893Z,16.13
2022-10-11T14:21:30.079Z,16.13
2022-10-11T14:23:59.348Z,16.11
2022-10-11T14:26:27.291Z,16.11
2022-10-11T14:28:59.419Z,16.13
2022-10-11T14:31:26.791Z,16.10
2022-10-11T14:33:54.729Z,16.12
2022-10-11T14:36:22.961Z,16.12
2022-10-11T14:38:50.932Z,16.11
2022-10-11T14:41:17.448Z,16.07
2022-10-11T14:43:44.327Z,16.08
2022-10-11T14:46:21.385Z,16.07
2022-10-11T14:48:55.347Z,16.05
2022-10-11T14:51:25.646Z,16.07
2022-10-11T14:53:52.143Z,16.05
2022-10-11T14:56:21.554Z,16.07
2022-10-11T14:58:48.352Z,16.08
2022-10-11T15:01:16.326Z,16.08
2022-10-11T15:03:43.169Z,16.07
2022-10-11T15:06:30.604Z,16.08
2022-10-11T15:08:57.120Z,16.10
2022-10-11T15:11:24.466Z,16.08
2022-10-11T15:13:51.112Z,16.08
2022-10-11T15:16:20.147Z,16.07
2022-10-11T15:18:51.862Z,16.05
2022-10-11T15:21:25.126Z,16.04
2022-10-11T15:23:52.508Z,16.02
2022-10-11T15:26:24.831Z,15.99
2022-10-11T15:28:52.420Z,16.00
2022-10-11T15:31:19.364Z,15.98
2022-10-11T15:33:46.069Z,15.96
2022-10-11T15:36:15.077Z,15.94
2022-10-11T15:38:41.881Z,15.91
2022-10-11T15:41:15.495Z,15.87
2022-10-11T15:43:43.420Z,15.87
2022-10-11T15:46:15.310Z,15.85
2022-10-11T15:48:41.780Z,15.81
2022-10-11T15:51:08.231Z,15.76
2022-10-11T15:53:35.293Z,15.72
2022-10-11T15:56:04.910Z,15.69
2022-10-11T15:58:34.252Z,15.66
2022-10-11T16:01:09.369Z,15.61
2022-10-11T16:03:36.358Z,15.56
2022-10-11T16:06:05.540Z,15.52
2022-10-11T16:08:33.722Z,15.47
2022-10-11T16:11:00.569Z,15.41
2022-10-11T16:13:27.201Z,15.37
2022-10-11T16:15:54.091Z,15.32
2022-10-11T16:18:22.177Z,15.27
2022-10-11T16:20:51.401Z,15.21
2022-10-11T16:23:18.565Z,15.16
2022-10-11T16:25:45.098Z,15.10
2022-10-11T16:28:11.761Z,15.06
2022-10-11T16:30:40.059Z,15.01
2022-10-11T16:33:06.543Z,14.94
2022-10-11T16:35:33.021Z,14.87
2022-10-11T16:38:00.741Z,14.79
2022-10-11T16:40:28.330Z,14.72
2022-10-11T16:42:54.825Z,14.63
2022-10-11T16:45:21.356Z,14.57
2022-10-11T16:47:47.870Z,14.47
2022-10-11T16:50:15.008Z,14.40
2022-10-11T16:52:41.540Z,14.34
2022-10-11T16:55:08.416Z,14.27
2022-10-11T16:57:34.998Z,14.20
2022-10-11T17:00:01.477Z,14.14
2022-10-11T17:02:32.321Z,14.06
2022-10-11T17:04:59.295Z,14.00
2022-10-11T17:07:25.956Z,13.93
2022-10-11T17:09:53.471Z,13.87
2022-10-11T17:12:22.495Z,13.81
2022-10-11T17:14:49.637Z,13.75
2022-10-11T17:17:17.823Z,13.69
2022-10-11T17:19:45.570Z,13.62
2022-10-11T17:22:13.674Z,13.57
2022-10-11T17:24:40.248Z,13.53
2022-10-11T17:27:06.943Z,13.48
2022-10-11T17:29:35.568Z,13.43
2022-10-11T17:32:02.331Z,13.38
2022-10-11T17:34:28.902Z,13.32
2022-10-11T17:36:55.399Z,13.25
2022-10-11T17:39:23.243Z,13.17
2022-10-11T17:41:50.322Z,13.12
2022-10-11T17:44:18.487Z,13.05
2022-10-11T17:46:45.751Z,13.00
2022-10-11T17:49:13.067Z,12.92
2022-10-11T17:51:40.714Z,12.86
2022-10-11T17:54:12.399Z,12.80
2022-10-11T17:56:40.393Z,12.74
2022-10-11T17:59:09.083Z,12.68
2022-10-11T18:01:35.915Z,12.65
2022-10-11T18:04:04.209Z,12.61
2022-10-11T18:06:33.569Z,12.59
2022-10-11T18:09:02.083Z,12.56
2022-10-11T18:11:29.190Z,12.52
2022-10-11T18:13:55.803Z,12.50
2022-10-11T18:16:27.063Z,12.46
2022-10-11T18:18:54.810Z,12.43
2022-10-11T18:21:21.292Z,12.38
2022-10-11T18:23:47.849Z,12.36
2022-10-11T18:26:16.894Z,12.32
2022-10-11T18:28:44.033Z,12.29
2022-10-11T18:31:14.628Z,12.26
2022-10-11T18:33:42.296Z,12.24
2022-10-11T18:36:10.481Z,12.20
2022-10-11T18:38:38.134Z,12.18
2022-10-11T18:41:08.899Z,12.15
2022-10-11T18:43:35.811Z,12.12
2022-10-11T18:46:06.615Z,12.09
2022-10-11T18:48:33.911Z,12.04
2022-10-11T18:51:09.759Z,12.00
2022-10-11T18:53:36.891Z,11.96
2022-10-11T18:56:06.691Z,11.92
2022-10-11T18:58:35.122Z,11.88
2022-10-11T19:01:07.074Z,11.83
2022-10-11T19:03:35.221Z,11.78
2022-10-11T19:06:08.308Z,11.73
2022-10-11T19:08:35.199Z,11.66
2022-10-11T19:11:06.609Z,11.60
2022-10-11T19:13:34.097Z,11.55
2022-10-11T19:16:12.458Z,11.51
2022-10-11T19:18:43.871Z,11.47
2022-10-11T19:21:12.923Z,11.44
2022-10-11T19:23:41.810Z,11.39
2022-10-11T19:26:30.080Z,11.34
2022-10-11T19:29:01.910Z,11.31
2022-10-11T19:31:29.123Z,11.27
2022-10-11T19:33:56.956Z,11.23
2022-10-11T19:36:23.723Z,11.19
2022-10-11T19:38:51.019Z,11.17
2022-10-11T19:41:19.823Z,11.11
2022-10-11T19:43:47.143Z,11.08
2022-10-11T19:46:20.328Z,11.02
2022-10-11T19:48:54.310Z,10.98
2022-10-11T19:51:26.024Z,10.94
2022-10-11T19:54:00.070Z,10.89
2022-10-11T19:56:28.201Z,10.86
2022-10-11T19:58:55.270Z,10.82
2022-10-11T20:01:24.374Z,10.81
2022-10-11T20:04:03.946Z,10.77
2022-10-11T20:06:37.219Z,10.76
2022-10-11T20:09:28.118Z,10.74
2022-10-11T20:11:51.475Z,10.72
2022-10-11T20:14:17.985Z,10.70
2022-10-11T20:16:44.429Z,10.66
2022-10-11T20:19:10.943Z,10.65
2022-10-11T20:21:37.405Z,10.63
2022-10-11T20:24:04.200Z,10.60
2022-10-11T20:26:31.545Z,10.57
2022-10-11T20:28:58.443Z,10.55
2022-10-11T20:31:31.349Z,10.51
2022-10-11T20:34:01.258Z,10.48
2022-10-11T20:36:30.153Z,10.46
2022-10-11T20:38:58.116Z,10.43
2022-10-11T20:41:27.205Z,10.40
2022-10-11T20:43:55.160Z,10.34
2022-10-11T20:46:23.882Z,10.31
2022-10-11T20:49:00.405Z,10.26
2022-10-11T20:51:29.174Z,10.22
2022-10-11T20:53:56.492Z,10.18
2022-10-11T20:56:23.698Z,10.15
2022-10-11T20:58:52.337Z,10.12
2022-10-11T21:01:21.554Z,10.09
2022-10-11T21:03:48.211Z,10.04
2022-10-11T21:06:14.658Z,10.03
2022-10-11T21:08:41.288Z,9.99
2022-10-11T21:11:08.418Z,9.97
2022-10-11T21:13:35.146Z,9.94
2022-10-11T21:16:11.157Z,9.91
2022-10-11T21:18:37.952Z,9.87
2022-10-11T21:21:12.045Z,9.85
2022-10-11T21:23:38.915Z,9.82
2022-10-11T21:26:10.686Z,9.77
2022-10-11T21:28:37.645Z,9.74
2022-10-11T21:31:10.023Z,9.71
2022-10-11T21:33:36.985Z,9.69
2022-10-11T21:36:05.361Z,9.66
2022-10-11T21:38:32.205Z,9.66
2022-10-11T21:40:58.777Z,9.64
2022-10-11T21:43:25.241Z,9.62
2022-10-11T21:45:51.869Z,9.62
2022-10-11T21:48:18.455Z,9.60
2022-10-11T21:50:44.913Z,9.58
2022-10-11T21:53:11.365Z,9.57
2022-10-11T21:55:37.852Z,9.56
2022-10-11T21:58:06.115Z,9.55
2022-10-11T22:00:32.590Z,9.53
2022-10-11T22:02:59.065Z,9.52
2022-10-11T22:05:25.613Z,9.51
2022-10-11T22:07:52.105Z,9.50
2022-10-11T22:10:18.611Z,9.46
2022-10-11T22:12:45.143Z,9.43
2022-10-11T22:15:11.603Z,9.41
2022-10-11T22:17:38.131Z,9.38
2022-10-11T22:20:04.842Z,9.34
2022-10-11T22:22:31.357Z,9.31
2022-10-11T22:24:57.847Z,9.28
2022-10-11T22:27:24.339Z,9.26
2022-10-11T22:29:50.823Z,9.25
2022-10-11T22:32:17.330Z,9.22
2022-10-11T22:34:44.342Z,9.20
2022-10-11T22:37:10.971Z,9.18
2022-10-11T22:39:37.679Z,9.17
2022-10-11T22:42:04.296Z,9.14
2022-10-11T22:44:30.781Z,9.12
2022-10-11T22:46:57.257Z,9.10
2022-10-11T22:49:23.737Z,9.06
2022-10-11T22:51:50.201Z,9.04
2022-10-11T22:54:16.691Z,9.02
2022-10-11T22:56:43.171Z,9.00
2022-10-11T22:59:09.741Z,8.98
2022-10-11T23:01:36.248Z,8.96
2022-10-11T23:04:02.809Z,8.94
2022-10-11T23:06:29.423Z,8.92
2022-10-11T23:08:55.984Z,8.91
2022-10-11T23:11:22.447Z,8.90
2022-10-11T23:13:48.930Z,8.87
2022-10-11T23:16:15.425Z,8.84
2022-10-11T23:18:42.687Z,8.82
2022-10-11T23:21:09.361Z,8.77
2022-10-11T23:23:36.042Z,8.75
2022-10-11T23:26:08.663Z,8.73
2022-10-11T23:28:35.682Z,8.70
2022-10-11T23:31:10.241Z,8.70
2022-10-11T23:33:36.762Z,8.66
2022-10-11T23:36:03.430Z,8.63
2022-10-11T23:38:30.089Z,8.61
2022-10-11T23:40:56.563Z,8.59
2022-10-11T23:43:23.454Z,8.56
2022-10-11T23:45:50.023Z,8.54
2022-10-11T23:48:16.482Z,8.53
2022-10-11T23:50:42.955Z,8.53
2022-10-11T23:53:10.584Z,8.51
2022-10-11T23:55:37.139Z,8.49
2022-10-11T23:58:03.632Z,8.47
